Time;durP1;ratioP1;P1;durP2;ratioP2;P2;SDS_P1;SDS_P2;PMS_P1;PMS_P2;Temp;Humidity;BMP_temperature;BMP_pressure;BME280_temperature;BME280_humidity;BME280_pressure;Samples;Min_cycle;Max_cycle;Signal;HPM_P1;HPM_P2
2023/10/08 00:01:06;;;;;;;1.73;0.30;;;17.20;78.60;;;;;;4996064;28;20249;-81
2023/10/08 00:03:33;;;;;;;2.30;0.40;;;17.10;78.10;;;;;;5003237;28;20524;-81
2023/10/08 00:06:06;;;;;;;2.60;0.50;;;17.00;78.10;;;;;;5008358;28;20558;-81
2023/10/08 00:08:33;;;;;;;3.55;0.68;;;16.90;77.90;;;;;;4994337;28;20053;-81
2023/10/08 00:11:05;;;;;;;4.00;0.70;;;16.80;78.00;;;;;;5019322;28;20157;-81
2023/10/08 00:13:35;;;;;;;2.47;0.60;;;16.80;78.10;;;;;;5017875;28;20764;-81
2023/10/08 00:16:06;;;;;;;3.83;0.70;;;16.70;78.10;;;;;;5007756;28;20050;-81
2023/10/08 00:18:34;;;;;;;2.08;0.50;;;16.70;78.10;;;;;;5007689;28;20057;-81
2023/10/08 00:21:15;;;;;;;2.45;0.45;;;16.60;78.00;;;;;;4990336;28;20082;-81
2023/10/08 00:23:48;;;;;;;2.73;0.50;;;16.60;78.10;;;;;;5007512;28;20590;-80
2023/10/08 00:26:20;;;;;;;3.50;0.40;;;16.60;78.30;;;;;;5019119;28;20359;-81
2023/10/08 00:28:51;;;;;;;1.33;0.20;;;16.50;78.30;;;;;;5009075;28;20054;-81
2023/10/08 00:31:19;;;;;;;2.38;0.40;;;16.50;78.20;;;;;;4991983;28;20062;-81
2023/10/08 00:33:46;;;;;;;2.53;0.30;;;16.50;78.20;;;;;;5010603;28;20053;-81
2023/10/08 00:36:19;;;;;;;2.00;0.40;;;16.50;78.10;;;;;;5010926;28;20169;-81
2023/10/08 00:38:50;;;;;;;1.85;0.30;;;16.50;77.90;;;;;;5009350;28;20268;-81
2023/10/08 00:41:21;;;;;;;2.33;0.40;;;16.40;77.80;;;;;;5002523;28;20060;-81
2023/10/08 00:43:49;;;;;;;2.28;0.40;;;16.40;77.80;;;;;;5002335;28;20131;-81
2023/10/08 00:46:24;;;;;;;2.80;0.43;;;16.40;77.70;;;;;;5023214;28;20054;-81
2023/10/08 00:48:54;;;;;;;2.33;0.50;;;16.30;77.60;;;;;;5007028;28;20046;-81
2023/10/08 00:51:27;;;;;;;2.15;0.52;;;16.20;77.70;;;;;;5011504;28;20361;-80
2023/10/08 00:53:59;;;;;;;2.63;0.60;;;16.20;77.80;;;;;;4993493;28;20057;-81
2023/10/08 00:56:46;;;;;;;2.75;0.70;;;16.10;77.70;;;;;;4991476;28;20113;-81
2023/10/08 00:59:15;;;;;;;2.63;0.70;;;16.10;77.80;;;;;;4990943;28;20055;-81
2023/10/08 01:01:50;;;;;;;3.60;0.80;;;16.00;77.70;;;;;;4996884;28;20643;-81
2023/10/08 01:04:23;;;;;;;3.55;0.88;;;16.00;78.00;;;;;;5012210;28;20273;-81
2023/10/08 01:06:54;;;;;;;2.80;0.80;;;16.00;78.20;;;;;;4994156;28;20051;-81
2023/10/08 01:09:30;;;;;;;3.20;0.70;;;16.00;78.20;;;;;;4994203;28;20045;-81
2023/10/08 01:12:15;;;;;;;3.10;0.80;;;16.00;78.20;;;;;;4983953;28;20057;-81
2023/10/08 01:14:46;;;;;;;4.70;0.87;;;16.00;78.30;;;;;;4999475;28;20461;-80
2023/10/08 01:17:15;;;;;;;3.13;0.90;;;15.90;78.20;;;;;;5003271;28;20330;-81
2023/10/08 01:19:45;;;;;;;3.17;0.82;;;15.80;78.50;;;;;;4990366;28;20054;-81
2023/10/08 01:22:18;;;;;;;3.67;1.20;;;15.80;78.70;;;;;;5014654;28;20154;-80
2023/10/08 01:24:45;;;;;;;3.00;1.00;;;15.90;78.60;;;;;;5013633;28;20045;-82
2023/10/08 01:27:12;;;;;;;3.50;1.07;;;15.80;78.60;;;;;;5015692;28;20054;-81
2023/10/08 01:29:43;;;;;;;3.70;0.90;;;15.80;78.60;;;;;;5014630;28;20258;-81
2023/10/08 01:32:15;;;;;;;4.20;1.10;;;15.80;78.40;;;;;;5007286;28;20157;-81
2023/10/08 01:34:45;;;;;;;3.17;1.10;;;15.80;78.50;;;;;;4991056;28;20180;-81
2023/10/08 01:37:14;;;;;;;4.45;1.10;;;15.70;78.50;;;;;;4990049;28;20652;-80
2023/10/08 01:39:42;;;;;;;5.30;1.20;;;15.70;78.60;;;;;;5001890;28;20058;-80
2023/10/08 01:42:15;;;;;;;3.13;1.10;;;15.70;78.70;;;;;;5009047;28;20253;-81
2023/10/08 01:44:45;;;;;;;3.90;1.17;;;15.60;78.70;;;;;;5009845;28;20823;-81
2023/10/08 01:47:12;;;;;;;3.90;0.93;;;15.60;78.60;;;;;;5020603;28;20050;-80
2023/10/08 01:49:40;;;;;;;5.03;1.00;;;15.60;78.70;;;;;;5017999;28;20061;-81
2023/10/08 01:52:16;;;;;;;4.10;1.10;;;15.60;78.80;;;;;;4989112;28;20129;-81
2023/10/08 01:54:44;;;;;;;3.42;1.10;;;15.60;78.80;;;;;;5008569;28;20290;-80
2023/10/08 01:57:12;;;;;;;4.20;1.10;;;15.60;78.80;;;;;;5005532;28;20185;-81
2023/10/08 01:59:39;;;;;;;2.83;0.90;;;15.60;78.90;;;;;;5006067;28;20077;-81
2023/10/08 02:02:06;;;;;;;3.85;1.20;;;15.60;78.90;;;;;;4990736;28;20074;-81
2023/10/08 02:04:37;;;;;;;3.77;1.10;;;15.60;78.90;;;;;;4986191;28;20042;-81
2023/10/08 02:07:07;;;;;;;2.83;1.00;;;15.60;78.90;;;;;;5011223;28;20277;-81
2023/10/08 02:09:35;;;;;;;4.13;1.00;;;15.60;78.90;;;;;;5022853;28;20081;-81
2023/10/08 02:12:04;;;;;;;4.13;1.10;;;15.60;78.80;;;;;;4995791;28;20596;-80
2023/10/08 02:14:31;;;;;;;3.22;0.73;;;15.60;78.70;;;;;;5021409;28;20144;-80
2023/10/08 02:17:03;;;;;;;2.83;0.77;;;15.60;78.70;;;;;;5007986;28;20186;-81
2023/10/08 02:19:30;;;;;;;3.28;0.88;;;15.50;78.90;;;;;;4973650;28;20258;-81
2023/10/08 02:21:58;;;;;;;4.43;0.73;;;15.50;78.90;;;;;;4992523;28;20489;-81
2023/10/08 02:24:26;;;;;;;3.40;0.77;;;15.50;78.90;;;;;;4980633;28;20059;-81
2023/10/08 02:26:54;;;;;;;3.08;0.70;;;15.50;78.90;;;;;;5010747;28;20054;-80
2023/10/08 02:29:27;;;;;;;3.37;0.90;;;15.50;78.90;;;;;;5003929;28;20053;-80
2023/10/08 02:31:54;;;;;;;2.55;0.60;;;15.50;78.90;;;;;;5002328;28;20270;-80
2023/10/08 02:34:21;;;;;;;3.20;0.70;;;15.50;78.90;;;;;;4991695;28;20164;-80
2023/10/08 02:36:48;;;;;;;2.67;0.50;;;15.50;79.00;;;;;;5002416;28;20581;-80
2023/10/08 02:39:21;;;;;;;3.53;0.52;;;15.50;79.00;;;;;;4989676;28;20054;-81
2023/10/08 02:41:49;;;;;;;2.40;0.40;;;15.50;79.00;;;;;;5016341;28;20529;-80
2023/10/08 02:44:17;;;;;;;3.28;0.60;;;15.40;79.10;;;;;;4992579;28;20301;-80
2023/10/08 02:46:47;;;;;;;2.13;0.40;;;15.40;79.20;;;;;;5025321;28;20081;-81
2023/10/08 02:49:19;;;;;;;3.53;0.55;;;15.40;79.30;;;;;;5010289;28;20105;-80
2023/10/08 02:51:50;;;;;;;3.38;0.57;;;15.50;79.30;;;;;;5017830;28;20093;-81
2023/10/08 02:54:18;;;;;;;2.30;0.40;;;15.40;79.30;;;;;;4992939;28;20141;-81
2023/10/08 02:56:46;;;;;;;1.98;0.35;;;15.40;79.40;;;;;;5011431;28;20818;-81
2023/10/08 02:59:14;;;;;;;2.08;0.40;;;15.40;79.40;;;;;;5012132;28;20128;-81
2023/10/08 03:01:42;;;;;;;2.30;0.30;;;15.40;79.30;;;;;;4994412;28;20060;-80
2023/10/08 03:04:18;;;;;;;2.78;0.40;;;15.40;79.30;;;;;;4996270;28;20122;-80
2023/10/08 03:06:49;;;;;;;3.13;0.30;;;15.40;79.40;;;;;;5006527;28;21154;-80
2023/10/08 03:09:20;;;;;;;2.03;0.30;;;15.40;79.40;;;;;;4999108;28;20388;-81
2023/10/08 03:11:49;;;;;;;2.25;0.40;;;15.40;79.40;;;;;;4985698;28;20065;-80
2023/10/08 03:14:21;;;;;;;2.83;0.35;;;15.40;79.40;;;;;;4990147;28;20050;-80
2023/10/08 03:16:49;;;;;;;2.75;0.50;;;15.40;79.40;;;;;;5001551;28;20660;-81
2023/10/08 03:19:19;;;;;;;3.43;0.60;;;15.30;79.50;;;;;;5017873;28;20563;-80
2023/10/08 03:21:55;;;;;;;3.08;0.47;;;15.30;79.50;;;;;;5001230;28;20253;-80
2023/10/08 03:24:37;;;;;;;4.53;0.70;;;15.30;79.40;;;;;;5008549;28;20129;-80
2023/10/08 03:27:12;;;;;;;3.00;0.60;;;15.30;79.40;;;;;;5011703;28;20515;-80
2023/10/08 03:29:41;;;;;;;3.25;0.80;;;15.30;79.40;;;;;;5021347;28;20083;-80
2023/10/08 03:32:15;;;;;;;4.00;0.83;;;15.20;79.40;;;;;;5019955;28;20143;-81
2023/10/08 03:34:49;;;;;;;3.03;0.80;;;15.20;79.50;;;;;;5013938;28;20346;-80
2023/10/08 03:37:20;;;;;;;3.08;0.70;;;15.20;79.50;;;;;;4991920;28;20428;-80
2023/10/08 03:40:07;;;;;;;4.15;0.70;;;15.20;79.60;;;;;;4992088;28;20054;-81
2023/10/08 03:42:40;;;;;;;3.55;0.88;;;15.20;79.60;;;;;;4992410;28;20054;-80
2023/10/08 03:45:12;;;;;;;3.47;0.73;;;15.20;79.50;;;;;;5013802;28;20143;-82
2023/10/08 03:47:39;;;;;;;3.65;0.80;;;15.20;79.60;;;;;;5017838;28;20539;-81
2023/10/08 03:50:09;;;;;;;3.17;0.77;;;15.20;79.70;;;;;;5023039;28;20061;-80
2023/10/08 03:52:38;;;;;;;3.17;0.70;;;15.20;79.60;;;;;;5010261;28;20054;-81
2023/10/08 03:55:13;;;;;;;3.72;0.80;;;15.20;79.60;;;;;;5009867;28;20491;-80
2023/10/08 03:57:44;;;;;;;3.30;0.73;;;15.20;79.70;;;;;;4984132;28;20057;-81
2023/10/08 04:00:17;;;;;;;3.17;0.65;;;15.10;79.70;;;;;;5005651;28;20345;-80
2023/10/08 04:02:46;;;;;;;3.05;0.77;;;15.10;79.70;;;;;;5010345;28;20144;-81
2023/10/08 04:05:27;;;;;;;3.47;0.73;;;15.10;79.70;;;;;;5010337;28;20050;-80
2023/10/08 04:08:16;;;;;;;2.72;0.70;;;15.10;79.70;;;;;;5010518;28;20491;-80
2023/10/08 04:13:31;;;;;;;4.03;0.88;;;15.10;79.70;;;;;;4992480;28;20675;-80
2023/10/08 04:15:58;;;;;;;4.07;0.80;;;15.10;79.60;;;;;;5019798;28;20065;-80
2023/10/08 04:18:25;;;;;;;2.85;0.55;;;15.10;79.60;;;;;;5003469;28;20049;-80
2023/10/08 04:21:04;;;;;;;3.40;0.60;;;15.10;79.60;;;;;;5016574;28;20132;-80
2023/10/08 04:23:32;;;;;;;3.73;0.60;;;15.00;79.70;;;;;;5004626;28;20141;-80
2023/10/08 04:25:59;;;;;;;2.25;0.50;;;15.00;79.70;;;;;;5016468;28;20385;-80
2023/10/08 04:28:28;;;;;;;2.38;0.55;;;15.00;79.70;;;;;;4994524;28;20157;-81
2023/10/08 04:31:00;;;;;;;2.92;0.43;;;15.00;79.70;;;;;;5011468;28;20130;-80
2023/10/08 04:33:33;;;;;;;2.60;0.50;;;15.00;79.70;;;;;;5025867;28;20057;-80
2023/10/08 04:36:03;;;;;;;2.77;0.50;;;15.00;79.80;;;;;;5008202;28;20495;-80
2023/10/08 04:38:36;;;;;;;2.50;0.40;;;15.00;79.80;;;;;;4999491;28;20286;-80
2023/10/08 04:41:08;;;;;;;3.45;0.40;;;15.00;79.80;;;;;;5019948;28;20432;-80
2023/10/08 04:43:37;;;;;;;3.10;0.70;;;15.00;79.80;;;;;;5010488;28;20544;-81
2023/10/08 04:46:19;;;;;;;4.72;0.60;;;14.90;79.80;;;;;;5003243;28;20104;-80
2023/10/08 04:48:46;;;;;;;3.57;0.60;;;14.90;79.90;;;;;;4992859;28;20640;-81
2023/10/08 04:51:14;;;;;;;2.83;0.50;;;14.90;79.90;;;;;;4992556;28;20262;-81
2023/10/08 04:53:43;;;;;;;3.75;0.50;;;14.90;79.90;;;;;;5010734;28;20057;-82
2023/10/08 04:56:16;;;;;;;3.47;0.47;;;14.90;79.90;;;;;;5021766;28;20053;-81
2023/10/08 04:58:46;;;;;;;2.53;0.40;;;14.90;79.90;;;;;;5009067;28;20523;-80
2023/10/08 05:01:20;;;;;;;1.93;0.30;;;14.90;79.80;;;;;;5016995;28;20050;-80
2023/10/08 05:07:00;;;;;;;2.97;0.50;;;14.90;79.90;;;;;;4986594;28;20116;-80
2023/10/08 05:09:41;;;;;;;3.47;0.30;;;14.80;80.00;;;;;;5014801;28;20090;-80
2023/10/08 05:12:34;;;;;;;3.35;0.50;;;14.80;80.00;;;;;;5018009;28;20065;-81
2023/10/08 05:15:21;;;;;;;2.97;0.40;;;14.80;80.00;;;;;;5007175;28;20053;-80
2023/10/08 05:18:13;;;;;;;5.78;0.43;;;14.80;80.00;;;;;;4990663;28;20254;-80
2023/10/08 05:20:59;;;;;;;2.53;0.50;;;14.80;80.00;;;;;;5000580;28;20671;-81
2023/10/08 05:23:53;;;;;;;2.75;0.50;;;14.80;79.90;;;;;;5009453;28;20042;-82
2023/10/08 05:26:31;;;;;;;3.45;0.45;;;14.80;79.90;;;;;;5009206;28;20584;-80
2023/10/08 05:29:39;;;;;;;3.70;0.50;;;14.80;79.90;;;;;;5003745;28;20125;-81
2023/10/08 05:32:18;;;;;;;5.32;0.73;;;14.70;80.00;;;;;;5016603;28;20284;-80
2023/10/08 05:34:51;;;;;;;3.28;0.40;;;14.70;80.00;;;;;;5010258;28;20057;-80
2023/10/08 05:37:32;;;;;;;3.03;0.60;;;14.70;80.00;;;;;;5009083;28;20097;-80
2023/10/08 05:40:21;;;;;;;7.82;0.93;;;14.70;80.00;;;;;;5001260;28;20437;-80
2023/10/08 05:42:49;;;;;;;4.10;0.50;;;14.70;79.90;;;;;;5006938;28;20057;-80
2023/10/08 05:45:29;;;;;;;4.00;0.50;;;14.70;80.00;;;;;;5007410;28;20254;-80
2023/10/08 05:50:43;;;;;;;3.55;0.60;;;14.70;80.00;;;;;;5031369;28;20061;-81
2023/10/08 05:53:19;;;;;;;4.35;0.50;;;14.70;80.00;;;;;;5002774;28;20130;-81
2023/10/08 05:56:01;;;;;;;3.33;0.57;;;14.70;80.00;;;;;;5001636;28;20049;-80
2023/10/08 05:58:35;;;;;;;3.40;0.73;;;14.70;80.00;;;;;;5027574;28;20256;-81
2023/10/08 06:01:08;;;;;;;2.78;0.50;;;14.60;80.00;;;;;;5010032;28;20054;-80
2023/10/08 06:03:48;;;;;;;3.53;0.50;;;14.60;80.10;;;;;;5013134;28;20054;-81
2023/10/08 06:06:35;;;;;;;3.92;0.40;;;14.60;80.20;;;;;;5025362;28;20108;-80
2023/10/08 06:09:22;;;;;;;4.53;0.60;;;14.60;80.10;;;;;;5012002;28;20496;-80
2023/10/08 06:12:07;;;;;;;3.20;0.40;;;14.60;80.20;;;;;;4999177;28;20274;-80
2023/10/08 06:15:06;;;;;;;2.90;0.60;;;14.60;80.20;;;;;;5025069;28;20393;-80
2023/10/08 06:18:04;;;;;;;4.22;0.68;;;14.60;80.30;;;;;;5007646;28;20760;-80
2023/10/08 06:20:30;;;;;;;2.28;0.38;;;14.60;80.30;;;;;;5023436;28;20046;-81
2023/10/08 06:23:03;;;;;;;3.03;0.40;;;14.60;80.30;;;;;;5012151;28;20043;-80
2023/10/08 06:25:30;;;;;;;2.70;0.40;;;14.60;80.30;;;;;;5030682;28;20311;-81
2023/10/08 06:27:59;;;;;;;4.45;0.40;;;14.60;80.30;;;;;;5006193;28;20057;-82
2023/10/08 06:30:29;;;;;;;3.33;0.68;;;14.60;80.40;;;;;;5012925;28;20054;-82
2023/10/08 06:32:57;;;;;;;2.33;0.40;;;14.60;80.40;;;;;;5025021;28;20057;-81
2023/10/08 06:35:27;;;;;;;3.50;0.50;;;14.50;80.50;;;;;;5025602;28;20053;-80
2023/10/08 06:37:59;;;;;;;2.75;0.30;;;14.50;80.50;;;;;;5021058;28;20305;-81
2023/10/08 06:40:44;;;;;;;3.22;0.50;;;14.50;80.60;;;;;;5021874;28;20054;-79
2023/10/08 06:43:14;;;;;;;5.45;0.40;;;14.50;80.80;;;;;;5014328;28;20054;-80
2023/10/08 06:45:43;;;;;;;3.53;0.50;;;14.50;80.90;;;;;;5029227;28;20054;-80
2023/10/08 06:48:17;;;;;;;3.90;0.60;;;14.50;81.00;;;;;;5012423;28;20065;-80
2023/10/08 06:50:45;;;;;;;2.20;0.45;;;14.50;81.00;;;;;;5005931;28;20306;-79
2023/10/08 06:53:13;;;;;;;3.53;0.47;;;14.50;81.10;;;;;;5023717;28;20185;-79
2023/10/08 06:55:41;;;;;;;2.33;0.52;;;14.60;81.10;;;;;;5005944;28;20737;-79
2023/10/08 06:58:09;;;;;;;4.32;0.50;;;14.60;81.20;;;;;;5026623;28;20069;-79
2023/10/08 07:00:39;;;;;;;4.00;0.60;;;14.60;81.30;;;;;;5023095;28;20046;-79
2023/10/08 07:03:08;;;;;;;3.78;0.70;;;14.60;81.40;;;;;;5022966;28;20671;-79
2023/10/08 07:05:40;;;;;;;2.80;0.55;;;14.60;81.40;;;;;;5022461;28;20050;-79
2023/10/08 07:08:09;;;;;;;6.22;0.85;;;14.60;81.50;;;;;;5013240;28;20668;-80
2023/10/08 07:10:36;;;;;;;3.45;0.50;;;14.60;81.50;;;;;;5004807;28;20140;-81
2023/10/08 07:13:04;;;;;;;5.30;0.70;;;14.60;81.60;;;;;;5029004;28;20042;-80
2023/10/08 07:15:32;;;;;;;3.90;0.50;;;14.60;81.70;;;;;;5019093;28;20300;-80
2023/10/08 07:18:09;;;;;;;6.38;0.80;;;14.60;81.80;;;;;;4989840;28;20045;-80
2023/10/08 07:20:39;;;;;;;2.80;0.73;;;14.60;81.90;;;;;;5026605;28;20096;-80
2023/10/08 07:23:18;;;;;;;3.33;0.60;;;14.50;81.90;;;;;;5020849;28;20042;-80
2023/10/08 07:26:01;;;;;;;6.23;1.00;;;14.50;81.90;;;;;;5026935;28;20053;-80
2023/10/08 07:28:30;;;;;;;2.65;0.43;;;14.50;81.90;;;;;;5009715;28;20276;-80
2023/10/08 07:30:58;;;;;;;4.35;0.80;;;14.50;81.90;;;;;;5012289;28;20061;-78
2023/10/08 07:33:36;;;;;;;4.55;0.60;;;14.50;81.90;;;;;;5011473;28;20060;-81
2023/10/08 07:36:11;;;;;;;5.88;0.93;;;14.40;82.00;;;;;;4999693;28;20492;-81
2023/10/08 07:38:42;;;;;;;4.40;0.83;;;14.40;82.10;;;;;;5017053;28;20058;-80
2023/10/08 07:41:09;;;;;;;4.50;0.63;;;14.40;82.10;;;;;;5007597;28;20246;-82
2023/10/08 07:43:35;;;;;;;3.90;0.75;;;14.40;82.10;;;;;;5024336;28;20578;-81
2023/10/08 07:46:02;;;;;;;6.15;0.63;;;14.50;82.10;;;;;;5005939;28;20058;-81
2023/10/08 07:48:31;;;;;;;4.53;0.80;;;14.50;82.10;;;;;;5020292;28;20055;-80
2023/10/08 07:50:58;;;;;;;3.70;0.70;;;14.50;82.20;;;;;;5018173;28;20054;-80
2023/10/08 07:53:37;;;;;;;3.70;0.75;;;14.50;82.30;;;;;;5005054;28;20255;-80
2023/10/08 07:56:07;;;;;;;5.00;0.80;;;14.50;82.40;;;;;;5003364;28;20049;-80
2023/10/08 07:58:43;;;;;;;3.10;0.50;;;14.50;82.60;;;;;;5008997;28;20054;-80
2023/10/08 08:01:13;;;;;;;4.43;0.80;;;14.50;82.70;;;;;;4999808;28;20056;-81
2023/10/08 08:03:42;;;;;;;3.43;0.70;;;14.60;82.70;;;;;;4999628;28;20580;-80
2023/10/08 08:06:10;;;;;;;6.57;0.82;;;14.60;82.80;;;;;;5002033;28;20284;-79
2023/10/08 08:08:39;;;;;;;4.72;0.63;;;14.60;82.80;;;;;;4997499;28;20054;-81
2023/10/08 08:11:11;;;;;;;4.22;0.90;;;14.60;82.80;;;;;;4997887;28;20130;-79
2023/10/08 08:13:42;;;;;;;5.22;0.77;;;14.60;82.80;;;;;;5007721;28;20050;-80
2023/10/08 08:16:17;;;;;;;5.27;1.10;;;14.60;82.70;;;;;;4984193;28;20554;-79
2023/10/08 08:18:46;;;;;;;5.25;0.82;;;14.60;82.60;;;;;;5000151;28;20332;-79
2023/10/08 08:21:15;;;;;;;6.38;0.95;;;14.60;82.50;;;;;;5016213;28;20687;-80
2023/10/08 08:23:47;;;;;;;4.72;0.80;;;14.60;82.20;;;;;;4897732;28;25924;-80
2023/10/08 08:26:26;;;;;;;6.40;1.00;;;14.60;82.10;;;;;;4967021;28;539524;-80
2023/10/08 08:28:56;;;;;;;5.33;0.80;;;14.60;81.80;;;;;;4961603;28;20046;-79
2023/10/08 08:31:25;;;;;;;7.80;0.82;;;14.60;81.70;;;;;;5009565;28;20284;-81
2023/10/08 08:33:56;;;;;;;5.13;0.70;;;14.60;81.70;;;;;;5009387;28;20425;-80
2023/10/08 08:36:24;;;;;;;4.57;0.70;;;14.60;81.50;;;;;;5008288;28;20476;-80
2023/10/08 08:38:51;;;;;;;4.63;0.57;;;14.70;81.20;;;;;;5010676;28;20150;-81
2023/10/08 08:41:18;;;;;;;5.63;0.90;;;14.70;80.60;;;;;;5009055;28;20062;-81
2023/10/08 08:43:49;;;;;;;5.53;0.68;;;14.70;80.40;;;;;;5009632;28;20577;-80
2023/10/08 08:46:17;;;;;;;7.65;0.85;;;14.70;80.30;;;;;;4988362;28;20050;-81
2023/10/08 08:48:45;;;;;;;4.43;0.57;;;14.70;80.20;;;;;;5008308;28;20057;-81
2023/10/08 08:51:14;;;;;;;5.60;0.80;;;14.70;80.00;;;;;;5004780;28;20497;-81
2023/10/08 08:53:42;;;;;;;5.80;0.60;;;14.70;80.10;;;;;;5009408;28;20122;-82
2023/10/08 08:56:10;;;;;;;6.57;0.82;;;14.70;80.30;;;;;;4993397;28;20287;-81
2023/10/08 08:58:38;;;;;;;5.13;0.63;;;14.70;80.30;;;;;;5006813;28;20121;-80
2023/10/08 09:01:09;;;;;;;5.95;0.80;;;14.80;80.10;;;;;;5006940;28;20053;-80
2023/10/08 09:03:37;;;;;;;8.43;0.93;;;14.80;80.00;;;;;;5024736;28;20073;-80
2023/10/08 09:06:04;;;;;;;6.80;0.93;;;14.80;79.90;;;;;;5010205;28;20100;-79
2023/10/08 09:08:36;;;;;;;5.95;0.75;;;14.90;79.50;;;;;;5010772;28;20353;-79
2023/10/08 09:11:04;;;;;;;7.03;1.05;;;14.90;79.50;;;;;;5009109;28;20544;-80
2023/10/08 09:13:32;;;;;;;5.45;0.60;;;14.90;79.20;;;;;;5011781;28;20050;-80
2023/10/08 09:16:07;;;;;;;5.15;0.60;;;14.90;79.20;;;;;;5006878;28;20046;-80
2023/10/08 09:18:34;;;;;;;5.47;0.80;;;14.90;78.90;;;;;;4994427;28;20046;-80
2023/10/08 09:21:15;;;;;;;4.35;0.60;;;14.90;78.60;;;;;;5029210;28;20293;-80
2023/10/08 09:23:47;;;;;;;5.43;0.70;;;15.00;78.60;;;;;;5027162;28;20649;-81
2023/10/08 09:26:14;;;;;;;3.80;0.73;;;15.00;78.80;;;;;;5009355;28;20053;-80
2023/10/08 09:28:47;;;;;;;5.10;0.80;;;15.00;78.90;;;;;;5012186;28;20049;-80
2023/10/08 09:31:14;;;;;;;4.43;0.70;;;15.00;78.80;;;;;;4991884;28;20551;-80
2023/10/08 09:33:41;;;;;;;6.80;0.88;;;15.10;78.80;;;;;;5017238;28;20280;-80
2023/10/08 09:36:10;;;;;;;4.70;0.60;;;15.20;78.70;;;;;;5028657;28;20049;-80
2023/10/08 09:38:38;;;;;;;5.45;0.70;;;15.20;78.40;;;;;;5028309;28;20072;-82
2023/10/08 09:41:08;;;;;;;6.28;1.00;;;15.20;78.20;;;;;;5024327;28;20515;-81
2023/10/08 09:43:36;;;;;;;6.77;1.00;;;15.30;78.10;;;;;;5005425;28;20041;-82
2023/10/08 09:46:16;;;;;;;5.93;0.60;;;15.30;77.50;;;;;;4994419;28;20385;-81
2023/10/08 09:48:50;;;;;;;5.97;0.60;;;15.40;77.10;;;;;;5009023;28;20053;-81
2023/10/08 09:51:18;;;;;;;5.10;0.70;;;15.40;77.00;;;;;;5025514;28;20057;-81
2023/10/08 09:53:54;;;;;;;8.80;0.95;;;15.40;76.70;;;;;;5007879;28;20058;-81
2023/10/08 09:56:25;;;;;;;4.83;0.77;;;15.50;77.00;;;;;;5009331;28;20049;-81
2023/10/08 09:58:53;;;;;;;5.43;0.65;;;15.50;77.00;;;;;;5004053;28;20257;-82
2023/10/08 10:01:22;;;;;;;4.25;0.60;;;15.60;77.00;;;;;;5008024;28;20057;-83
2023/10/08 10:03:50;;;;;;;7.90;0.70;;;15.60;77.20;;;;;;5006711;28;20060;-81
2023/10/08 10:06:20;;;;;;;7.30;0.73;;;15.60;77.10;;;;;;5009201;28;20061;-83
2023/10/08 10:08:49;;;;;;;6.43;0.83;;;15.70;76.80;;;;;;5011576;28;20231;-80
2023/10/08 10:11:16;;;;;;;5.95;0.77;;;15.80;76.30;;;;;;5012003;28;20258;-80
2023/10/08 10:13:52;;;;;;;3.80;0.50;;;15.80;76.10;;;;;;5007704;28;20050;-78
2023/10/08 10:16:22;;;;;;;5.75;0.70;;;15.80;75.70;;;;;;5008185;28;20054;-81
2023/10/08 10:18:50;;;;;;;4.47;0.70;;;15.90;74.90;;;;;;4985480;28;20497;-81
2023/10/08 10:21:30;;;;;;;6.70;0.90;;;15.90;74.70;;;;;;5012468;28;20090;-82
2023/10/08 10:23:58;;;;;;;5.60;0.65;;;16.00;74.80;;;;;;5027413;28;20270;-82
2023/10/08 10:26:30;;;;;;;5.82;0.70;;;16.00;75.00;;;;;;5009141;28;20056;-82
2023/10/08 10:29:21;;;;;;;6.43;0.63;;;16.00;74.70;;;;;;5008766;28;20222;-80
2023/10/08 10:31:52;;;;;;;3.53;0.43;;;16.10;74.60;;;;;;5008251;28;20058;-80
2023/10/08 10:34:22;;;;;;;6.60;0.90;;;16.10;74.40;;;;;;5022924;28;20052;-80
2023/10/08 10:36:55;;;;;;;4.13;0.50;;;16.20;74.30;;;;;;5020796;28;20290;-84
2023/10/08 10:39:27;;;;;;;6.63;0.80;;;16.20;74.10;;;;;;5007804;28;20501;-82
2023/10/08 10:42:01;;;;;;;6.78;0.85;;;16.30;73.60;;;;;;5007951;28;20647;-80
2023/10/08 10:44:30;;;;;;;5.63;0.60;;;16.30;72.70;;;;;;4997080;28;20647;-80
2023/10/08 10:49:52;;;;;;;5.07;0.77;;;16.40;72.70;;;;;;5029846;28;20772;-81
2023/10/08 10:52:31;;;;;;;7.18;0.95;;;16.40;72.80;;;;;;5026908;28;20488;-81
2023/10/08 10:55:17;;;;;;;5.57;0.88;;;16.40;72.60;;;;;;5007098;28;20051;-79
2023/10/08 10:57:55;;;;;;;4.43;0.63;;;16.40;72.60;;;;;;5007494;28;20054;-80
2023/10/08 11:03:16;;;;;;;4.47;0.55;;;16.50;72.10;;;;;;4990747;28;20250;-80
2023/10/08 11:05:49;;;;;;;3.88;0.52;;;16.50;71.80;;;;;;4999101;28;20498;-79
2023/10/08 11:08:18;;;;;;;5.90;0.70;;;16.60;71.50;;;;;;5015856;28;20042;-79
2023/10/08 11:10:50;;;;;;;3.80;0.80;;;16.60;71.10;;;;;;5001838;28;20053;-79
2023/10/08 11:13:18;;;;;;;7.63;0.80;;;16.60;71.10;;;;;;5033440;28;20050;-79
2023/10/08 11:15:51;;;;;;;5.47;0.70;;;16.60;71.00;;;;;;5023376;28;20301;-81
2023/10/08 11:18:19;;;;;;;4.57;0.90;;;16.60;71.00;;;;;;5012499;28;21449;-81
2023/10/08 11:20:53;;;;;;;5.45;0.80;;;16.70;70.70;;;;;;5009799;28;20073;-81
2023/10/08 11:23:35;;;;;;;6.32;0.68;;;16.70;70.20;;;;;;5006769;28;20046;-80
2023/10/08 11:26:04;;;;;;;6.77;0.60;;;16.70;70.30;;;;;;5024516;28;20063;-81
2023/10/08 11:28:34;;;;;;;4.25;0.60;;;16.70;70.50;;;;;;5031604;28;20311;-80
2023/10/08 11:31:07;;;;;;;5.68;1.00;;;16.80;70.40;;;;;;5010289;28;20124;-81
2023/10/08 11:33:39;;;;;;;4.70;0.68;;;16.80;70.30;;;;;;5010646;28;20060;-80
2023/10/08 11:36:18;;;;;;;5.22;0.60;;;16.90;69.90;;;;;;5020191;28;20543;-81
2023/10/08 11:38:47;;;;;;;4.97;0.77;;;16.90;69.90;;;;;;5011228;28;20051;-81
2023/10/08 11:41:21;;;;;;;6.20;1.00;;;17.00;69.90;;;;;;5013850;28;20261;-81
2023/10/08 11:43:53;;;;;;;6.25;0.82;;;17.00;69.70;;;;;;5009590;28;20046;-80
2023/10/08 11:46:32;;;;;;;7.28;0.73;;;17.00;69.70;;;;;;5018461;28;20125;-80
2023/10/08 11:49:04;;;;;;;5.22;0.70;;;17.10;70.20;;;;;;5030773;28;20535;-82
2023/10/08 11:51:33;;;;;;;5.27;0.87;;;17.20;69.70;;;;;;5035344;28;20090;-80
2023/10/08 11:54:00;;;;;;;7.05;0.90;;;17.20;69.30;;;;;;5029521;28;20277;-81
2023/10/08 11:56:29;;;;;;;5.80;0.80;;;17.20;68.70;;;;;;5008164;28;20602;-81
2023/10/08 11:58:56;;;;;;;5.40;0.80;;;17.20;68.30;;;;;;5013870;28;20055;-81
2023/10/08 12:01:26;;;;;;;4.47;0.85;;;17.40;68.20;;;;;;5006484;28;20129;-81
2023/10/08 12:03:59;;;;;;;6.60;0.80;;;17.40;68.50;;;;;;5017405;28;20046;-81
2023/10/08 12:06:29;;;;;;;6.82;0.73;;;17.40;68.10;;;;;;5027421;28;20361;-81
2023/10/08 12:08:58;;;;;;;6.80;1.02;;;17.50;67.20;;;;;;5010486;28;20046;-80
2023/10/08 12:11:30;;;;;;;5.15;0.50;;;17.50;66.40;;;;;;5026145;28;20456;-81
2023/10/08 12:13:58;;;;;;;5.35;0.70;;;17.50;66.70;;;;;;5027967;28;20057;-80
2023/10/08 12:16:29;;;;;;;6.17;0.70;;;17.50;65.90;;;;;;5007021;28;20072;-81
2023/10/08 12:18:59;;;;;;;6.80;0.98;;;17.50;65.80;;;;;;5007953;28;20289;-81
2023/10/08 12:21:29;;;;;;;5.75;1.02;;;17.50;65.60;;;;;;5023413;28;20588;-81
2023/10/08 12:23:56;;;;;;;5.05;0.60;;;17.60;64.60;;;;;;5007523;28;20531;-81
2023/10/08 12:26:23;;;;;;;4.35;0.90;;;17.60;63.40;;;;;;5028521;28;20070;-81
2023/10/08 12:28:50;;;;;;;5.53;0.93;;;17.50;64.00;;;;;;5006940;28;20049;-81
2023/10/08 12:31:21;;;;;;;5.40;0.90;;;17.50;64.00;;;;;;5007488;28;20250;-81
2023/10/08 12:33:53;;;;;;;5.35;0.95;;;17.50;63.60;;;;;;4990275;28;20058;-82
2023/10/08 12:36:22;;;;;;;6.22;0.85;;;17.50;63.70;;;;;;5023737;28;20524;-84
2023/10/08 12:38:57;;;;;;;6.35;0.90;;;17.50;64.10;;;;;;4991154;28;20525;-81
2023/10/08 12:41:24;;;;;;;7.20;0.90;;;17.50;64.40;;;;;;5011367;28;20081;-84
2023/10/08 12:43:55;;;;;;;7.22;1.02;;;17.60;64.60;;;;;;5006199;28;20340;-84
2023/10/08 12:46:25;;;;;;;7.38;1.00;;;17.60;64.90;;;;;;5007413;28;20543;-83
2023/10/08 12:48:54;;;;;;;5.07;1.05;;;17.60;65.40;;;;;;5006425;28;20521;-82
2023/10/08 12:51:24;;;;;;;5.40;0.65;;;17.70;65.70;;;;;;5025884;28;20057;-83
2023/10/08 12:53:58;;;;;;;7.37;0.80;;;17.80;65.70;;;;;;5002050;28;20054;-82
2023/10/08 12:56:31;;;;;;;5.97;0.85;;;17.80;66.00;;;;;;5002106;28;20245;-82
2023/10/08 12:58:59;;;;;;;5.22;0.63;;;17.90;66.00;;;;;;5008347;28;20439;-81
2023/10/08 13:01:28;;;;;;;6.50;0.82;;;18.00;65.80;;;;;;5028701;28;20061;-82
2023/10/08 13:04:00;;;;;;;5.90;0.70;;;18.00;65.80;;;;;;4995747;28;20053;-81
2023/10/08 13:06:29;;;;;;;5.07;0.80;;;18.00;65.70;;;;;;5002238;28;20503;-81
2023/10/08 13:08:56;;;;;;;7.13;1.00;;;18.10;65.50;;;;;;5006597;28;20288;-81
2023/10/08 13:11:24;;;;;;;6.80;0.70;;;18.10;65.30;;;;;;4994366;28;20050;-82
2023/10/08 13:13:52;;;;;;;7.45;0.88;;;18.10;65.10;;;;;;5003809;28;20615;-81
2023/10/08 13:16:21;;;;;;;7.55;0.98;;;18.20;65.10;;;;;;5026721;28;20600;-82
2023/10/08 13:18:48;;;;;;;6.30;0.90;;;18.20;65.20;;;;;;5012385;28;20060;-82
2023/10/08 13:21:18;;;;;;;5.82;0.85;;;18.30;65.20;;;;;;5008873;28;20249;-82
2023/10/08 13:23:46;;;;;;;5.32;0.70;;;18.40;65.20;;;;;;5007974;28;20064;-83
2023/10/08 13:26:16;;;;;;;5.95;0.70;;;18.40;65.00;;;;;;5013228;28;20046;-82